createdAt,value
2019-01-24T00:04:08.420Z,-1.40
2019-01-24T00:09:01.109Z,-1.50
2019-01-24T00:13:53.871Z,-1.40
2019-01-24T00:18:46.326Z,-1.40
2019-01-24T00:23:39.201Z,-1.40
2019-01-24T00:28:31.641Z,-1.40
2019-01-24T00:33:24.370Z,-1.40
2019-01-24T00:38:16.869Z,-1.40
2019-01-24T00:43:09.307Z,-1.40
2019-01-24T00:48:02.085Z,-1.40
2019-01-24T00:52:54.495Z,-1.40
2019-01-24T00:57:47.392Z,-1.30
2019-01-24T01:02:40.067Z,-1.40
2019-01-24T01:07:32.319Z,-1.40
2019-01-24T01:12:24.524Z,-1.40
2019-01-24T01:17:17.286Z,-1.30
2019-01-24T01:22:09.636Z,-1.30
2019-01-24T01:27:02.244Z,-1.30
2019-01-24T01:31:54.989Z,-1.30
2019-01-24T01:36:47.332Z,-1.30
2019-01-24T01:41:39.623Z,-1.30
2019-01-24T01:46:32.350Z,-1.30
2019-01-24T01:51:25.254Z,-1.30
2019-01-24T01:56:17.871Z,-1.30
2019-01-24T02:01:10.428Z,-1.30
2019-01-24T02:06:03.331Z,-1.40
2019-01-24T02:10:56.246Z,-1.50
2019-01-24T02:15:48.517Z,-1.50
2019-01-24T02:20:41.204Z,-1.40
2019-01-24T02:25:35.033Z,-1.40
2019-01-24T02:30:29.471Z,-1.40
2019-01-24T02:35:22.008Z,-1.30
2019-01-24T02:40:14.505Z,-1.30
2019-01-24T02:45:13.068Z,-1.30
2019-01-24T02:50:08.664Z,-1.30
2019-01-24T02:55:01.186Z,-1.30
2019-01-24T02:59:53.773Z,-1.30
2019-01-24T03:04:46.180Z,-1.30
2019-01-24T03:09:38.530Z,-1.30
2019-01-24T03:14:31.088Z,-1.20
2019-01-24T03:19:23.755Z,-1.10
2019-01-24T03:24:16.272Z,-1.30
2019-01-24T03:29:08.905Z,-1.30
2019-01-24T03:34:01.758Z,-1.30
2019-01-24T03:38:54.117Z,-1.40
2019-01-24T03:43:46.854Z,-1.40
2019-01-24T03:48:39.481Z,-1.30
2019-01-24T03:53:32.272Z,-1.30
2019-01-24T03:58:24.968Z,-1.30
2019-01-24T04:03:17.709Z,-1.40
2019-01-24T04:08:11.705Z,-1.40
2019-01-24T04:13:04.193Z,-1.40
2019-01-24T04:17:56.886Z,-1.40
2019-01-24T04:22:49.368Z,-1.40
2019-01-24T04:27:42.077Z,-1.40
2019-01-24T04:32:34.729Z,-1.40
2019-01-24T04:37:27.239Z,-1.40
2019-01-24T04:42:19.969Z,-1.40
2019-01-24T04:47:12.749Z,-1.30
2019-01-24T04:52:05.054Z,-1.30
2019-01-24T04:56:57.509Z,-1.40
2019-01-24T05:01:50.069Z,-1.20
2019-01-24T05:06:42.653Z,-1.20
2019-01-24T05:11:34.941Z,-1.20
2019-01-24T05:16:27.713Z,-1.10
2019-01-24T05:21:20.064Z,-1.10
2019-01-24T05:26:12.641Z,-1.20
2019-01-24T05:31:05.088Z,-1.20
2019-01-24T05:35:57.749Z,-1.20
2019-01-24T05:40:50.378Z,-1.20
2019-01-24T05:45:42.669Z,-1.10
2019-01-24T05:50:34.990Z,-1.10
2019-01-24T05:55:27.609Z,-1.10
2019-01-24T06:00:22.677Z,-1.10
2019-01-24T06:05:15.488Z,-1.10
2019-01-24T06:10:11.400Z,-1.10
2019-01-24T06:15:05.556Z,-1.20
2019-01-24T06:19:57.616Z,-1.20
2019-01-24T06:24:50.396Z,-1.10
2019-01-24T06:29:42.927Z,-1.00
2019-01-24T06:34:35.169Z,-1.10
2019-01-24T06:39:27.868Z,-1.10
2019-01-24T06:44:20.561Z,-1.10
2019-01-24T06:49:13.121Z,-1.10
2019-01-24T06:54:05.716Z,-1.10
2019-01-24T06:58:58.574Z,-1.20
2019-01-24T07:03:51.259Z,-1.20
2019-01-24T07:08:44.016Z,-1.20
2019-01-24T07:13:36.465Z,-1.20
2019-01-24T07:18:29.280Z,-1.20
2019-01-24T07:23:21.704Z,-1.20
2019-01-24T07:28:14.319Z,-1.20
2019-01-24T07:33:07.422Z,-1.10
2019-01-24T07:38:00.133Z,-1.10
2019-01-24T07:42:52.580Z,-1.10
2019-01-24T07:47:45.289Z,-1.20
2019-01-24T07:52:37.850Z,-1.20
2019-01-24T07:57:30.018Z,-1.20
2019-01-24T08:02:22.412Z,-1.20
2019-01-24T08:07:14.830Z,-1.20
2019-01-24T08:12:07.657Z,-1.20
2019-01-24T08:17:00.097Z,-1.30
2019-01-24T08:21:52.536Z,-1.30
2019-01-24T08:26:45.134Z,-1.30
2019-01-24T08:31:37.537Z,-1.20
2019-01-24T08:36:29.920Z,-1.10
2019-01-24T08:41:22.191Z,-1.00
2019-01-24T08:46:14.666Z,-1.00
2019-01-24T08:51:06.996Z,-0.80
2019-01-24T08:55:59.385Z,-0.80
2019-01-24T09:00:52.145Z,-0.80
2019-01-24T09:05:44.694Z,-0.80
2019-01-24T09:10:38.266Z,-0.70
2019-01-24T09:15:31.201Z,-0.70
2019-01-24T09:20:23.731Z,-0.70
2019-01-24T09:25:16.242Z,-0.70
2019-01-24T09:30:12.459Z,-0.80
2019-01-24T09:35:08.698Z,-0.80
2019-01-24T09:40:01.361Z,-0.80
2019-01-24T09:44:54.048Z,-0.80
2019-01-24T09:49:46.588Z,-0.70
2019-01-24T09:54:39.232Z,-0.80
2019-01-24T09:59:31.607Z,-0.60
2019-01-24T10:04:24.094Z,-0.40
2019-01-24T10:09:16.826Z,-0.10
2019-01-24T10:14:09.365Z,0.30
2019-01-24T10:19:02.285Z,0.60
2019-01-24T10:23:54.644Z,0.70
2019-01-24T10:28:47.160Z,1.00
2019-01-24T10:33:39.522Z,1.00
2019-01-24T10:38:31.914Z,1.20
2019-01-24T10:43:24.757Z,1.40
2019-01-24T10:48:17.289Z,1.60
2019-01-24T10:53:09.927Z,1.30
2019-01-24T10:58:02.356Z,1.10
2019-01-24T11:02:54.689Z,1.50
2019-01-24T11:07:47.902Z,1.70
2019-01-24T11:12:40.294Z,2.10
2019-01-24T11:17:34.093Z,2.40
2019-01-24T11:22:26.645Z,2.40
2019-01-24T11:27:19.519Z,2.10
2019-01-24T11:32:12.255Z,1.90
2019-01-24T11:37:05.189Z,1.30
2019-01-24T11:41:57.718Z,1.10
2019-01-24T11:46:50.081Z,1.00
2019-01-24T11:51:42.785Z,1.30
2019-01-24T11:56:35.673Z,1.70
2019-01-24T12:01:28.215Z,2.00
2019-01-24T12:06:20.565Z,2.00
2019-01-24T12:11:13.334Z,1.90
2019-01-24T12:16:05.873Z,1.60
2019-01-24T12:20:58.477Z,1.40
2019-01-24T12:25:50.939Z,1.20
2019-01-24T12:30:43.524Z,1.10
2019-01-24T12:35:36.024Z,1.10
2019-01-24T12:40:28.781Z,1.00
2019-01-24T12:45:24.189Z,1.00
2019-01-24T12:50:18.705Z,0.80
2019-01-24T12:55:12.456Z,0.70
2019-01-24T13:00:07.981Z,0.50
2019-01-24T13:05:00.311Z,0.20
2019-01-24T13:09:52.717Z,0.20
2019-01-24T13:14:45.129Z,0.20
2019-01-24T13:19:37.677Z,0.10
2019-01-24T13:24:30.373Z,0.10
2019-01-24T13:29:22.696Z,0.20
2019-01-24T13:34:15.641Z,0.20
2019-01-24T13:39:10.255Z,0.20
2019-01-24T13:44:02.842Z,0.10
2019-01-24T13:48:54.972Z,0.10
2019-01-24T13:53:47.781Z,0.10
2019-01-24T13:58:40.018Z,0.00
2019-01-24T14:03:32.836Z,-0.10
2019-01-24T14:08:25.541Z,-0.10
2019-01-24T14:13:18.075Z,-0.20
2019-01-24T14:18:10.568Z,-0.20
2019-01-24T14:23:03.336Z,-0.20
2019-01-24T14:27:56.330Z,-0.20
2019-01-24T14:32:48.874Z,-0.20
2019-01-24T14:37:41.679Z,-0.30
2019-01-24T14:42:34.469Z,-0.30
2019-01-24T14:47:27.018Z,-0.30
2019-01-24T14:52:19.613Z,-0.30
2019-01-24T14:57:12.085Z,-0.30
2019-01-24T15:02:04.891Z,-0.30
2019-01-24T15:06:57.782Z,-0.40
2019-01-24T15:11:50.118Z,-0.40
2019-01-24T15:16:42.538Z,-0.40
2019-01-24T15:21:35.985Z,-0.40
2019-01-24T15:26:28.699Z,-0.40
2019-01-24T15:31:21.373Z,-0.40
2019-01-24T15:36:14.139Z,-0.40
2019-01-24T15:41:06.953Z,-0.50
2019-01-24T15:45:59.834Z,-0.60
2019-01-24T15:50:52.349Z,-0.60
2019-01-24T15:55:45.041Z,-0.70
2019-01-24T16:00:37.624Z,-0.80
2019-01-24T16:05:30.206Z,-0.90
2019-01-24T16:10:23.789Z,-1.00
2019-01-24T16:15:18.925Z,-1.10
2019-01-24T16:20:14.543Z,-1.00
2019-01-24T16:25:10.186Z,-1.00
2019-01-24T16:30:02.769Z,-1.10
2019-01-24T16:34:55.434Z,-1.10
2019-01-24T16:39:47.920Z,-1.20
2019-01-24T16:44:40.665Z,-1.20
2019-01-24T16:49:33.603Z,-1.20
2019-01-24T16:54:26.038Z,-1.20
2019-01-24T16:59:18.408Z,-1.20
2019-01-24T17:04:10.750Z,-1.20
2019-01-24T17:09:05.113Z,-1.30
2019-01-24T17:13:57.817Z,-1.30
2019-01-24T17:18:50.493Z,-1.30
2019-01-24T17:23:43.202Z,-1.30
2019-01-24T17:28:36.000Z,-1.40
2019-01-24T17:33:28.303Z,-1.30
2019-01-24T17:38:23.859Z,-1.30
2019-01-24T17:43:15.220Z,-1.40
2019-01-24T17:48:07.953Z,-1.40
2019-01-24T17:53:00.606Z,-1.50
2019-01-24T17:57:53.061Z,-1.50
2019-01-24T18:02:45.850Z,-1.50
2019-01-24T18:07:38.094Z,-1.40
2019-01-24T18:12:30.615Z,-1.50
2019-01-24T18:17:23.155Z,-1.60
2019-01-24T18:22:15.954Z,-1.60
2019-01-24T18:27:08.700Z,-1.60
2019-01-24T18:32:01.221Z,-1.70
2019-01-24T18:36:54.048Z,-1.70
2019-01-24T18:41:46.648Z,-1.60
2019-01-24T18:46:39.197Z,-1.60
2019-01-24T18:51:31.580Z,-1.60
2019-01-24T18:56:24.008Z,-1.60
2019-01-24T19:01:16.796Z,-1.60
2019-01-24T19:06:08.990Z,-1.60
2019-01-24T19:11:01.793Z,-1.70
2019-01-24T19:15:54.466Z,-1.60
2019-01-24T19:20:46.784Z,-1.60
2019-01-24T19:25:39.632Z,-1.50
2019-01-24T19:30:33.392Z,-1.40
2019-01-24T19:35:26.673Z,-1.50
2019-01-24T19:40:25.109Z,-1.50
2019-01-24T19:45:19.861Z,-1.50
2019-01-24T19:50:15.373Z,-1.50
2019-01-24T19:55:10.345Z,-1.50
2019-01-24T20:00:03.010Z,-1.50
2019-01-24T20:04:55.449Z,-1.50
2019-01-24T20:09:48.474Z,-1.40
2019-01-24T20:14:41.100Z,-1.40
2019-01-24T20:19:33.758Z,-1.40
2019-01-24T20:24:26.224Z,-1.40
2019-01-24T20:29:19.477Z,-1.50
2019-01-24T20:34:12.046Z,-1.60
2019-01-24T20:39:07.800Z,-1.50
2019-01-24T20:44:00.348Z,-1.50
2019-01-24T20:48:53.158Z,-1.50
2019-01-24T20:53:45.704Z,-1.60
2019-01-24T20:58:38.273Z,-1.60
2019-01-24T21:03:31.068Z,-1.60
2019-01-24T21:08:24.233Z,-1.50
2019-01-24T21:13:16.865Z,-1.50
2019-01-24T21:18:09.821Z,-1.60
2019-01-24T21:23:02.465Z,-1.60
2019-01-24T21:27:55.472Z,-1.60
2019-01-24T21:32:47.860Z,-1.60
2019-01-24T21:37:40.306Z,-1.60
2019-01-24T21:42:33.424Z,-1.60
2019-01-24T21:47:26.207Z,-1.60
2019-01-24T21:52:19.852Z,-1.60
2019-01-24T21:57:12.617Z,-1.60
2019-01-24T22:02:05.361Z,-1.60
2019-01-24T22:06:57.820Z,-1.60
2019-01-24T22:11:50.104Z,-1.60
2019-01-24T22:16:42.529Z,-1.60
2019-01-24T22:21:35.320Z,-1.60
2019-01-24T22:26:27.807Z,-1.60
2019-01-24T22:31:20.770Z,-1.60
2019-01-24T22:36:13.647Z,-1.70
2019-01-24T22:41:06.340Z,-1.70
2019-01-24T22:45:58.961Z,-1.70
2019-01-24T22:50:51.317Z,-1.70
2019-01-24T22:55:43.700Z,-1.70
2019-01-24T23:00:49.222Z,-1.70
2019-01-24T23:05:41.970Z,-1.70
2019-01-24T23:10:34.577Z,-1.70
2019-01-24T23:15:27.168Z,-1.70
2019-01-24T23:20:19.878Z,-1.60
2019-01-24T23:25:12.588Z,-1.60
2019-01-24T23:30:07.962Z,-1.60
2019-01-24T23:35:00.309Z,-1.60
2019-01-24T23:39:53.640Z,-1.60
2019-01-24T23:44:45.881Z,-1.70
2019-01-24T23:49:38.377Z,-1.70
2019-01-24T23:54:31.002Z,-1.70
2019-01-24T23:59:23.841Z,-1.70
